aviador You're here:

LYPG Decoded Metar

PODGORICA in SERBIA
Report Time2017-10-22 06:00:00
UTC Time2017-10-22 06:34:42
Flight Rules vfr VFR
WindVRB at 01 kt
Visibility9999 m
Phenomena:N/A
Clouds:Scattered 040 Hf
Broken 080 Hf
Expected CloudBase > 1,200 ft AGL from Temp-Dew spread
Ceiling8,000 ft
Temp15°C (ISA 0)
Dew Point12°C (82% RH)
QNH1018 hPa
Density Alt194 ft
Elevation141 ft
Report Wrong Elevation
Raw Report
LYPG 220600Z VRB01KT 9999 SCT040 BKN080 15/12 Q1018 NOSIG=

Extra information for LYPG:More info

Metar Taf Metar & Taf Last 4 Metars F.Rules Stats Wind Profile Meteogram Temp Stats Airport Information Weather charts Add Link Nearby VenuesMetar ALERT Operation Metar Decoded Social comments